Details From EGLL - London Heathrow
To EGTE - Exeter
Flight Number -
Tags Real Decoded
Created
Modified
Stats Distance 120 nm / 223 km
Max Altitude 0 ft / 0 m
Waypoints 4
Social Downloads 4
Likes 0
Share VATSIM

Download

Looking for another format? Having issues loading an existing format? Contact us
Advertisement - Login to hide

Notes

Decoded

Route

EGLL WOD EGDM EGTE

ID Type Via Altitude Latitude Longitude Leg Dist Tot Dist Heading (true) Name
O EGLL APT - 0 ft / 0 m 51.46477˚ -0.48695˚ - 0 nm - -
WOD NDB - 0 ft / 0 m 51.45278˚ -0.87889˚ 14 nm 14 nm 267° / 267° WOODLEY NDB
EGDM APT - 0 ft / 0 m 51.15075˚ -1.75894˚ 37 nm 52 nm 242° / 241° -
O EGTE APT - 0 ft / 0 m 50.73851˚ -3.42704˚ 67 nm 120 nm 249° / 248° -

Altitude Profile

Advertisement - Login to hide

EGLL

Details ICAO EGLL (LHR)
Name London Heathrow
Region United Kingdom
Timezone Europe/London (UTC+1.0)
Stats Elevation 83 ft / 25 m (AMSL)
Location 51.471218° -0.460978°
Runways 2
Magnetic Variation 0.495° W

METAR

EGLL 231920Z AUTO 01006KT 340V050 9999 NCD 14/09 Q1022 NOSIG

Decode

TAF

TAF TAF EGLL 231712Z 2318/2424 04010KT 9999 FEW040 PROB40 TEMPO 2318/2402 7000 SHRA TEMPO 2402/2418 7000 SHRA PROB40 TEMPO 2402/2416 4000 +SHRA BKN014 BKN040CB BECMG 2412/2415 VRB03KT TEMPO 2416/2421 4000 +SHRA BKN014 BKN040CB TEMPO 2421/2424 8000 BKN010

Decode

Departure Runways

ID Width Length Bearing (true) Bearing (mag) Surface Threshold Offset Overrun Length
09L 164 ft / 50 m 12,811 ft / 3,905 m 89.64° 90.14° Asphalt 1,004 ft / 306 m 0 ft / 0 m
09R 164 ft / 50 m 12,019 ft / 3,663 m 89.67° 90.17° Asphalt 1,007 ft / 307 m 0 ft / 0 m
27L 164 ft / 50 m 12,019 ft / 3,663 m 269.71° 270.21° Asphalt 0 ft / 0 m 69 ft / 21 m
27R 164 ft / 50 m 12,811 ft / 3,905 m 269.69° 270.19° Asphalt 0 ft / 0 m 69 ft / 21 m

EGTE

Details ICAO EGTE (EXT)
Name Exeter
Region United Kingdom
Timezone Europe/London (UTC+1.0)
Stats Elevation 102 ft / 31 m (AMSL)
Location 50.734260° -3.414000°
Runways 1
Magnetic Variation 1.448° W

METAR

EGTE 231920Z 01005KT 350V050 CAVOK 19/11 Q1021

Decode

TAF

Not found

Destination Runways

ID Width Length Bearing (true) Bearing (mag) Surface Threshold Offset Overrun Length
08 151 ft / 46 m 6,666 ft / 2,032 m 76.09° 77.54° Asphalt 0 ft / 0 m 0 ft / 0 m
26 151 ft / 46 m 6,666 ft / 2,032 m 256.11° 257.56° Asphalt 0 ft / 0 m 0 ft / 0 m

Approach Navaids

Runway Type Ident Frequency Range Bearing (true) Bearing (mag) Slope Elevation
08 Localiser IET 109.90 MHz 18 nm / 33 km 76.11° 77.56° - 102 ft / 31 m (AMSL)
08 Glidescope IET 109.90 MHz 10 nm / 19 km 76.10° 77.55° 3.00° 50 ft / 15 m (AMSL)
08 DME IET 109.90 MHz 18 nm / 33 km - - - 102 ft / 31 m (AMSL)
26 Localiser IXR 109.90 MHz 18 nm / 33 km 256.10° 257.55° - 102 ft / 31 m (AMSL)
26 Glidescope IXR 109.90 MHz 10 nm / 19 km 256.10° 257.55° 3.50° 58 ft / 18 m (AMSL)
26 DME IXR 109.90 MHz 18 nm / 33 km - - - 102 ft / 31 m (AMSL)

Popular Alternatives